Main page
METAR-TAF:

METAR-TAF

Airports :

Ghadames Airport

Ghadames, Libya

latitude: 30-08N, longitude: 009-30E, elevation: 346 m

METAR: missing

Time: 17:13 (15:13 UTC)

Forecast

The report was made 4 hours and 13 minutes ago, at 11:00 UTC
Forecast valid from 01 at 12 UTC to 02 at 12 UTC
Wind 2 kt from variable directions
Visibility: 8000 m
Becoming
from 01 at 16 UTC to 01 at 18 UTC
Wind 14 kt from the East/Northeast
Visibility 10 km or more
no clouds below 1500 m and no cumulonimbus

TAF: HLTD 011100Z 0112/0212 VRB02KT 8000 NSC BECMG 0116/0118 06014KT CAVOK

Weather observations and forecasts of more than 4000 airports (METAR and TAF reports).

The available stations are represented by yellow and red dots on the map.

Hover mouse over dot to see the name of the station.

Then click to see weather observations and forecasts.

To change the map : click on the green buttons with a black cross to zoom in, on the green button with a dash to zoom out, or on the green arrows for adjacent maps.


METAR-TAF: